createdAt,value
2022-12-09T00:01:12.640Z,99424.09
2022-12-09T00:03:40.273Z,99475.13
2022-12-09T00:06:08.735Z,99480.31
2022-12-09T00:08:36.383Z,99485.59
2022-12-09T00:11:04.131Z,99461.63
2022-12-09T00:13:31.662Z,99469.75
2022-12-09T00:16:00.652Z,99484.69
2022-12-09T00:18:28.389Z,99478.63
2022-12-09T00:20:56.079Z,99484.78
2022-12-09T00:23:23.740Z,99482.22
2022-12-09T00:25:51.208Z,99475.22
2022-12-09T00:28:18.651Z,99482.31
2022-12-09T00:30:46.374Z,99479.56
2022-12-09T00:33:15.249Z,99475.22
2022-12-09T00:35:42.778Z,99484.84
2022-12-09T00:38:10.466Z,99488.31
2022-12-09T00:40:38.010Z,99490.22
2022-12-09T00:43:05.456Z,99493.63
2022-12-09T00:45:33.142Z,99488.31
2022-12-09T00:48:00.636Z,99490.16
2022-12-09T00:50:32.469Z,99471.50
2022-12-09T00:53:00.163Z,99483.13
2022-12-09T00:55:27.762Z,99493.69
2022-12-09T00:57:55.549Z,99492.00
2022-12-09T01:00:23.059Z,99494.66
2022-12-09T01:02:50.862Z,99492.00
2022-12-09T01:05:18.848Z,99482.41
2022-12-09T01:07:48.006Z,99489.47
2022-12-09T01:10:15.989Z,99495.59
2022-12-09T01:12:43.580Z,99500.03
2022-12-09T01:15:11.414Z,99494.75
2022-12-09T01:17:39.242Z,99484.63
2022-12-09T01:20:09.719Z,99469.31
2022-12-09T01:22:37.524Z,99500.88
2022-12-09T01:25:07.167Z,99493.06
2022-12-09T01:27:34.655Z,99500.97
2022-12-09T01:30:02.182Z,99486.19
2022-12-09T01:32:29.785Z,99500.13
2022-12-09T01:34:57.531Z,99467.97
2022-12-09T01:37:25.407Z,99499.16
2022-12-09T01:39:53.228Z,99504.44
2022-12-09T01:42:22.889Z,99304.41
2022-12-09T01:45:30.637Z,99509.72
2022-12-09T01:48:01.631Z,99483.09
2022-12-09T01:50:29.457Z,99440.50
2022-12-09T01:52:57.345Z,99363.44
2022-12-09T01:55:25.205Z,99494.91
2022-12-09T01:57:54.137Z,99492.38
2022-12-09T02:00:22.302Z,99414.13
2022-12-09T02:02:50.504Z,99489.72
2022-12-09T02:05:18.719Z,99450.59
2022-12-09T02:07:46.467Z,99482.66
2022-12-09T02:10:15.269Z,99482.66
2022-12-09T02:12:46.666Z,99471.34
2022-12-09T02:15:18.110Z,99430.06
2022-12-09T02:17:47.459Z,99480.84
2022-12-09T02:20:16.904Z,99482.75
2022-12-09T02:22:45.861Z,99458.75
2022-12-09T02:25:19.247Z,99371.22
2022-12-09T02:27:49.646Z,99458.31
2022-12-09T02:30:19.945Z,99405.44
2022-12-09T02:33:05.429Z,99483.03
2022-12-09T02:35:36.524Z,99476.78
2022-12-09T02:38:07.357Z,99477.66
2022-12-09T02:40:36.612Z,99479.34
2022-12-09T02:43:04.645Z,99344.81
2022-12-09T02:45:32.317Z,99486.41
2022-12-09T02:48:01.179Z,99472.38
2022-12-09T02:50:30.536Z,99477.66
2022-12-09T02:53:00.685Z,99447.75
2022-12-09T02:55:28.158Z,99466.13
2022-12-09T02:57:57.711Z,99407.47
2022-12-09T03:00:25.436Z,99468.00
2022-12-09T03:02:54.939Z,99461.88
2022-12-09T03:05:24.539Z,99462.72
2022-12-09T03:07:56.319Z,99462.72
2022-12-09T03:10:27.069Z,99464.53
2022-12-09T03:12:57.981Z,99402.59
2022-12-09T03:15:26.990Z,99454.78
2022-12-09T03:17:54.864Z,99454.78
2022-12-09T03:20:23.871Z,99454.78
2022-12-09T03:22:51.374Z,99439.09
2022-12-09T03:25:20.080Z,99348.44
2022-12-09T03:27:51.515Z,99454.78
2022-12-09T03:30:19.252Z,99447.91
2022-12-09T03:32:47.113Z,99381.94
2022-12-09T03:35:16.685Z,99383.63
2022-12-09T03:37:44.117Z,99391.63
2022-12-09T03:40:14.372Z,99395.63
2022-12-09T03:42:45.484Z,99456.78
2022-12-09T03:45:14.261Z,99448.88
2022-12-09T03:47:41.882Z,99445.34
2022-12-09T03:50:10.535Z,99397.06
2022-12-09T03:52:39.156Z,99445.34
2022-12-09T03:55:10.008Z,99413.22
2022-12-09T03:57:38.185Z,99409.63
2022-12-09T04:00:07.565Z,99441.94
2022-12-09T04:02:37.224Z,99440.25
2022-12-09T04:05:05.997Z,99442.03
2022-12-09T04:07:33.663Z,99441.13
2022-12-09T04:10:01.269Z,99434.88
2022-12-09T04:12:29.097Z,99433.19
2022-12-09T04:14:56.926Z,99434.03
2022-12-09T04:17:24.817Z,99434.88
2022-12-09T04:19:53.653Z,99426.97
2022-12-09T04:22:21.293Z,99430.56
2022-12-09T04:24:48.759Z,99428.75
2022-12-09T04:27:16.348Z,99362.69
2022-12-09T04:29:44.092Z,99427.91
2022-12-09T04:32:11.894Z,99345.72
2022-12-09T04:34:39.477Z,99424.41
2022-12-09T04:37:08.274Z,99430.56
2022-12-09T04:39:36.107Z,99422.72
2022-12-09T04:42:03.967Z,99421.00
2022-12-09T04:44:31.631Z,99428.84
2022-12-09T04:46:59.300Z,99419.13
2022-12-09T04:49:26.886Z,99367.53
2022-12-09T04:51:54.605Z,99421.00
2022-12-09T04:54:23.540Z,99415.72
2022-12-09T04:56:51.028Z,99422.81
2022-12-09T04:59:18.723Z,99409.69
2022-12-09T05:01:46.456Z,99414.03
2022-12-09T05:04:14.344Z,99421.09
2022-12-09T05:06:42.550Z,99409.78
2022-12-09T05:09:12.298Z,99410.63
2022-12-09T05:11:41.594Z,99360.66
2022-12-09T05:14:09.562Z,99406.66
2022-12-09T05:16:37.280Z,99420.16
2022-12-09T05:19:04.958Z,99422.72
2022-12-09T05:21:33.025Z,99415.63
2022-12-09T05:24:02.449Z,99424.22
2022-12-09T05:26:30.099Z,99396.84
2022-12-09T05:28:59.029Z,99413.31
2022-12-09T05:31:26.893Z,99415.84
2022-12-09T05:33:54.793Z,99410.47
2022-12-09T05:36:24.746Z,99384.97
2022-12-09T05:38:53.234Z,99410.22
2022-12-09T05:41:21.115Z,99406.63
2022-12-09T05:43:48.958Z,99406.63
2022-12-09T05:46:18.140Z,99411.81
2022-12-09T05:48:46.032Z,99392.84
2022-12-09T05:51:16.145Z,99406.44
2022-12-09T05:53:43.832Z,99409.84
2022-12-09T05:56:11.524Z,99400.97
2022-12-09T05:58:39.230Z,99399.09
2022-12-09T06:01:08.267Z,99362.91
2022-12-09T06:03:37.888Z,99411.34
2022-12-09T06:06:07.429Z,99412.22
2022-12-09T06:08:35.484Z,99412.22
2022-12-09T06:11:03.327Z,99408.63
2022-12-09T06:13:30.945Z,99407.78
2022-12-09T06:16:03.578Z,99312.31
2022-12-09T06:18:31.300Z,99409.28
2022-12-09T06:21:00.400Z,99411.94
2022-12-09T06:23:28.189Z,99402.78
2022-12-09T06:25:56.081Z,99402.69
2022-12-09T06:28:23.915Z,99404.66
2022-12-09T06:30:51.780Z,99402.00
2022-12-09T06:33:52.496Z,99411.72
2022-12-09T06:36:09.076Z,99403.69
2022-12-09T06:38:37.050Z,99405.31
2022-12-09T06:41:07.600Z,99398.22
2022-12-09T06:43:35.267Z,99401.53
2022-12-09T06:46:03.156Z,99399.56
2022-12-09T06:48:30.869Z,99406.56
2022-12-09T06:50:58.691Z,99402.13
2022-12-09T06:53:27.736Z,99400.13
2022-12-09T06:55:55.273Z,99402.78
2022-12-09T06:58:22.799Z,99402.78
2022-12-09T07:00:51.050Z,99400.03
2022-12-09T07:03:19.023Z,99399.03
2022-12-09T07:05:47.224Z,99401.56
2022-12-09T07:08:14.924Z,99402.31
2022-12-09T07:10:48.137Z,99391.38
2022-12-09T07:13:19.430Z,99408.34
2022-12-09T07:15:47.315Z,99408.63
2022-12-09T07:18:15.296Z,99417.63
2022-12-09T07:20:42.905Z,99415.06
2022-12-09T07:23:11.396Z,99422.03
2022-12-09T07:25:39.016Z,99427.13
2022-12-09T07:28:07.999Z,99425.34
2022-12-09T07:30:38.522Z,99400.69
2022-12-09T07:33:06.342Z,99422.53
2022-12-09T07:35:34.031Z,99420.63
2022-12-09T07:38:02.425Z,99428.56
2022-12-09T07:40:30.226Z,99423.25
2022-12-09T07:42:59.925Z,99428.66
2022-12-09T07:45:29.336Z,99427.72
2022-12-09T07:47:56.927Z,99428.66
2022-12-09T07:50:24.672Z,99433.84
2022-12-09T07:52:52.534Z,99426.59
2022-12-09T07:55:20.322Z,99423.84
2022-12-09T07:57:48.028Z,99430.72
2022-12-09T08:00:17.158Z,99428.28
2022-12-09T08:02:46.403Z,99429.97
2022-12-09T08:05:14.714Z,99423.00
2022-12-09T08:07:44.849Z,99425.53
2022-12-09T08:10:13.265Z,99423.84
2022-12-09T08:12:40.828Z,99422.91
2022-12-09T08:15:09.511Z,99428.09
2022-12-09T08:17:37.449Z,99434.22
2022-12-09T08:20:08.378Z,99426.31
2022-12-09T08:22:36.379Z,99430.63
2022-12-09T08:25:04.088Z,99421.13
2022-12-09T08:27:32.500Z,99433.28
2022-12-09T08:30:00.741Z,99432.31
2022-12-09T08:32:28.680Z,99441.22
2022-12-09T08:34:56.829Z,99437.63
2022-12-09T08:37:25.954Z,99437.72
2022-12-09T08:39:53.441Z,99439.44
2022-12-09T08:42:21.228Z,99436.78
2022-12-09T08:44:51.231Z,99436.69
2022-12-09T08:47:20.523Z,99364.53
2022-12-09T08:49:48.236Z,99434.88
2022-12-09T08:52:15.845Z,99435.84
2022-12-09T08:54:44.983Z,99439.25
2022-12-09T08:57:12.538Z,99439.97
2022-12-09T08:59:44.957Z,99429.41
2022-12-09T09:02:12.915Z,99438.19
2022-12-09T09:04:41.281Z,99437.19
2022-12-09T09:07:09.129Z,99434.53
2022-12-09T09:09:37.150Z,99434.53
2022-12-09T09:12:06.887Z,99433.63
2022-12-09T09:14:34.900Z,99397.88
2022-12-09T09:17:02.729Z,99439.91
2022-12-09T09:19:31.697Z,99441.53
2022-12-09T09:21:59.284Z,99445.88
2022-12-09T09:24:27.262Z,99420.44
2022-12-09T09:26:56.114Z,99450.22
2022-12-09T09:29:25.482Z,99391.94
2022-12-09T09:31:54.999Z,99440.41
2022-12-09T09:34:23.125Z,99442.94
2022-12-09T09:36:51.203Z,99443.72
2022-12-09T09:39:19.277Z,99443.72
2022-12-09T09:41:51.121Z,99409.50
2022-12-09T09:44:23.463Z,99442.66
2022-12-09T09:46:53.491Z,99420.94
2022-12-09T09:49:23.963Z,99440.22
2022-12-09T09:51:52.039Z,99389.47
2022-12-09T09:54:19.667Z,99441.06
2022-12-09T09:56:53.165Z,99443.63
2022-12-09T09:59:25.509Z,99445.31
2022-12-09T10:02:00.135Z,99348.97
2022-12-09T10:04:33.562Z,99438.25
2022-12-09T10:07:07.102Z,99436.53
2022-12-09T10:09:39.358Z,99422.09
2022-12-09T10:12:12.110Z,99434.66
2022-12-09T10:14:43.814Z,99355.78
2022-12-09T10:17:28.397Z,99434.66
2022-12-09T10:19:58.447Z,99425.94
2022-12-09T10:22:29.797Z,99429.44
2022-12-09T10:24:59.026Z,99347.66
2022-12-09T10:27:30.586Z,99376.47
2022-12-09T10:29:59.999Z,99308.88
2022-12-09T10:32:30.742Z,99379.75
2022-12-09T10:34:58.489Z,99427.47
2022-12-09T10:37:29.981Z,99338.31
2022-12-09T10:40:15.466Z,99414.25
2022-12-09T10:43:02.982Z,99421.31
2022-12-09T10:45:46.015Z,99414.25
2022-12-09T10:48:25.525Z,99413.31
2022-12-09T10:50:56.769Z,99325.09
2022-12-09T10:53:24.604Z,99414.16
2022-12-09T10:55:53.239Z,99421.22
2022-12-09T10:58:21.814Z,99421.22
2022-12-09T11:01:07.130Z,99421.22
2022-12-09T11:03:37.159Z,99421.22
2022-12-09T11:06:23.539Z,99361.84
2022-12-09T11:08:53.515Z,99413.31
2022-12-09T11:11:21.705Z,99358.06
2022-12-09T11:13:49.392Z,99412.44
2022-12-09T11:16:17.370Z,99419.44
2022-12-09T11:18:48.132Z,99416.81
2022-12-09T11:21:32.482Z,99421.13
2022-12-09T11:24:03.491Z,99414.16
2022-12-09T11:26:37.574Z,99416.81
2022-12-09T11:29:07.479Z,99410.75
2022-12-09T11:31:38.358Z,99353.59
2022-12-09T11:34:18.116Z,99408.88
2022-12-09T11:36:48.604Z,99272.91
2022-12-09T11:39:23.071Z,99408.78
2022-12-09T11:42:16.628Z,99341.81
2022-12-09T11:44:51.613Z,99299.16
2022-12-09T11:47:22.506Z,99399.97
2022-12-09T11:49:53.603Z,99399.03
2022-12-09T11:52:26.617Z,99393.72
2022-12-09T11:55:13.085Z,99390.25
2022-12-09T11:57:44.494Z,99294.66
2022-12-09T12:00:21.100Z,99394.69
2022-12-09T12:02:51.899Z,99387.91
2022-12-09T12:05:23.610Z,99390.16
2022-12-09T12:07:57.595Z,99389.22
2022-12-09T12:10:26.383Z,99340.09
2022-12-09T12:13:01.621Z,99375.72
2022-12-09T12:15:33.184Z,99389.22
2022-12-09T12:18:01.270Z,99392.81
2022-12-09T12:20:39.986Z,99397.16
2022-12-09T12:23:16.644Z,99297.81
2022-12-09T12:25:49.216Z,99391.75
2022-12-09T12:28:23.409Z,99380.31
2022-12-09T12:30:54.407Z,99318.41
2022-12-09T12:36:22.581Z,99384.78
2022-12-09T12:39:01.500Z,99386.47
2022-12-09T12:41:32.981Z,99379.41
2022-12-09T12:44:23.397Z,99311.53
2022-12-09T12:46:57.315Z,99307.06
2022-12-09T12:49:36.605Z,99374.94
2022-12-09T12:52:26.335Z,99327.84
2022-12-09T12:55:00.858Z,99370.50
2022-12-09T12:57:30.809Z,99368.81
2022-12-09T13:00:00.077Z,99371.38
2022-12-09T13:02:34.638Z,99371.28
2022-12-09T13:05:04.273Z,99362.56
2022-12-09T13:07:36.530Z,99328.78
2022-12-09T13:10:05.906Z,99335.59
2022-12-09T13:12:53.397Z,99364.25
2022-12-09T13:15:22.379Z,99348.16
2022-12-09T13:17:49.808Z,99296.31
2022-12-09T13:20:20.145Z,99337.56
2022-12-09T13:22:52.560Z,99325.03
2022-12-09T13:25:23.540Z,99340.13
2022-12-09T13:27:53.176Z,99358.88
2022-12-09T13:30:21.491Z,99357.09
2022-12-09T13:32:59.427Z,99358.97
2022-12-09T13:35:30.890Z,99309.53
2022-12-09T13:38:00.494Z,99346.69
2022-12-09T13:40:35.177Z,99329.84
2022-12-09T13:43:22.355Z,99352.00
2022-12-09T13:45:51.867Z,99344.25
2022-12-09T13:48:47.308Z,99348.59
2022-12-09T13:51:15.112Z,99321.72
2022-12-09T13:53:47.101Z,99347.94
2022-12-09T13:56:23.629Z,99352.38
2022-12-09T13:59:01.524Z,99322.16
2022-12-09T14:01:31.114Z,99359.75
2022-12-09T14:04:04.357Z,99357.19
2022-12-09T14:06:33.460Z,99358.25
2022-12-09T14:09:03.893Z,99363.53
2022-12-09T14:11:47.180Z,99288.78
2022-12-09T14:14:37.635Z,99356.56
2022-12-09T14:17:17.114Z,99353.16
2022-12-09T14:19:56.274Z,99316.91
2022-12-09T14:22:34.431Z,99360.31
2022-12-09T14:25:34.337Z,99351.66
2022-12-09T14:28:25.831Z,99351.75
2022-12-09T14:30:55.154Z,99297.63
2022-12-09T14:33:22.874Z,99357.13
2022-12-09T14:35:51.281Z,99356.25
2022-12-09T14:38:22.171Z,99348.31
2022-12-09T14:40:53.389Z,99353.69
2022-12-09T14:43:44.540Z,99351.06
2022-12-09T14:46:23.306Z,99346.06
2022-12-09T14:48:53.887Z,99351.25
2022-12-09T14:51:23.568Z,99340.50
2022-12-09T14:53:52.841Z,99357.56
2022-12-09T14:58:42.259Z,99357.75
2022-12-09T15:01:09.766Z,99360.50
2022-12-09T15:03:45.367Z,99362.19
2022-12-09T15:06:17.419Z,99363.97
2022-12-09T15:08:44.982Z,99361.44
2022-12-09T15:11:14.484Z,99366.81
2022-12-09T15:13:46.124Z,99319.34
2022-12-09T15:16:14.707Z,99314.16
2022-12-09T15:18:42.858Z,99360.78
2022-12-09T15:21:10.337Z,99326.97
2022-12-09T15:23:39.327Z,99319.34
2022-12-09T15:26:08.908Z,99372.41
2022-12-09T15:28:37.128Z,99364.28
2022-12-09T15:31:07.722Z,99311.44
2022-12-09T15:33:40.542Z,99375.97
2022-12-09T15:36:09.884Z,99373.41
2022-12-09T15:38:41.434Z,99354.84
2022-12-09T15:41:27.080Z,99361.44
2022-12-09T15:43:55.298Z,99370.06
2022-12-09T15:46:24.255Z,99347.47
2022-12-09T15:48:54.683Z,99378.91
2022-12-09T15:51:22.924Z,99380.81
2022-12-09T15:53:55.321Z,99383.53
2022-12-09T15:56:24.625Z,99380.03
2022-12-09T15:58:53.114Z,99386.19
2022-12-09T16:01:21.104Z,99379.09
2022-12-09T16:03:50.720Z,99387.00
2022-12-09T16:06:18.160Z,99384.47
2022-12-09T16:08:45.610Z,99384.56
2022-12-09T16:11:13.083Z,99333.56
2022-12-09T16:13:58.021Z,99379.28
2022-12-09T16:16:27.379Z,99323.56
2022-12-09T16:18:56.530Z,99385.59
2022-12-09T16:21:26.872Z,99352.66
2022-12-09T16:23:56.243Z,99384.00
2022-12-09T16:26:28.160Z,99333.22
2022-12-09T16:28:59.626Z,99355.56
2022-12-09T16:31:27.146Z,99391.94
2022-12-09T16:33:55.970Z,99310.53
2022-12-09T16:36:25.833Z,99309.41
2022-12-09T16:39:32.559Z,99393.72
2022-12-09T16:42:01.623Z,99392.13
2022-12-09T16:44:31.738Z,99387.75
2022-12-09T16:47:13.357Z,99379.19
2022-12-09T16:49:43.093Z,99295.06
2022-12-09T16:52:12.500Z,99381.06
2022-12-09T16:54:39.944Z,99391.63
2022-12-09T16:57:07.410Z,99387.28
2022-12-09T16:59:38.043Z,99384.66
2022-12-09T17:02:10.235Z,99333.16
2022-12-09T17:04:37.688Z,99392.56
2022-12-09T17:07:06.446Z,99392.56
2022-12-09T17:09:33.887Z,99390.84
2022-12-09T17:12:01.355Z,99397.94
2022-12-09T17:14:29.012Z,99396.22
2022-12-09T17:16:56.468Z,99393.69
2022-12-09T17:19:23.932Z,99398.13
2022-12-09T17:21:52.294Z,99402.56
2022-12-09T17:24:21.525Z,99398.31
2022-12-09T17:26:48.972Z,99400.09
2022-12-09T17:29:16.413Z,99401.88
2022-12-09T17:31:43.897Z,99396.78
2022-12-09T17:34:11.345Z,99392.34
2022-12-09T17:36:38.933Z,99399.25
2022-12-09T17:39:07.234Z,99403.59
2022-12-09T17:41:35.991Z,99395.75
2022-12-09T17:44:03.464Z,99391.50
2022-12-09T17:46:30.989Z,99409.06
2022-12-09T17:49:00.122Z,99410.06
2022-12-09T17:51:31.004Z,99407.53
2022-12-09T17:54:02.978Z,99410.16
2022-12-09T17:56:30.490Z,99406.88
2022-12-09T17:59:02.531Z,99385.88
2022-12-09T18:01:30.126Z,99416.31
2022-12-09T18:04:01.598Z,99418.09
2022-12-09T18:06:34.099Z,99416.31
2022-12-09T18:09:01.958Z,99365.25
2022-12-09T18:11:29.428Z,99423.47
2022-12-09T18:13:56.847Z,99423.56
2022-12-09T18:16:25.653Z,99428.84
2022-12-09T18:18:53.288Z,99435.94
2022-12-09T18:21:20.861Z,99429.88
2022-12-09T18:23:48.600Z,99432.50
2022-12-09T18:26:17.652Z,99331.16
2022-12-09T18:28:45.149Z,99424.59
2022-12-09T18:31:14.728Z,99429.97
2022-12-09T18:33:43.591Z,99428.28
2022-12-09T18:36:16.536Z,99435.34
2022-12-09T18:38:44.043Z,99427.59
2022-12-09T18:41:11.863Z,99436.28
2022-12-09T18:43:40.291Z,99401.47
2022-12-09T18:46:09.008Z,99355.38
2022-12-09T18:48:36.547Z,99446.06
2022-12-09T18:51:08.406Z,99395.91
2022-12-09T18:53:35.893Z,99437.38
2022-12-09T18:56:04.820Z,99432.09
2022-12-09T18:59:04.340Z,99397.69
2022-12-09T19:01:20.727Z,99310.34
2022-12-09T19:03:48.299Z,99447.09
2022-12-09T19:06:21.924Z,99455.03
2022-12-09T19:08:53.457Z,99450.75
2022-12-09T19:11:21.850Z,99456.03
2022-12-09T19:13:49.367Z,99449.06
2022-12-09T19:16:16.879Z,99448.22
2022-12-09T19:18:44.384Z,99452.66
2022-12-09T19:21:12.300Z,99433.16
2022-12-09T19:23:41.687Z,99423.81
2022-12-09T19:26:12.059Z,99371.47
2022-12-09T19:28:39.567Z,99451.03
2022-12-09T19:31:14.620Z,99452.75
2022-12-09T19:33:42.155Z,99451.97
2022-12-09T19:36:10.383Z,99444.91
2022-12-09T19:38:37.828Z,99444.91
2022-12-09T19:41:06.893Z,99444.06
2022-12-09T19:43:34.453Z,99445.91
2022-12-09T19:46:06.403Z,99459.97
2022-12-09T19:48:35.715Z,99466.22
2022-12-09T19:51:04.632Z,99408.16
2022-12-09T19:53:33.537Z,99464.50
2022-12-09T19:56:02.229Z,99467.22
2022-12-09T19:58:31.158Z,99463.75
2022-12-09T20:00:58.768Z,99461.09
2022-12-09T20:03:26.295Z,99467.31
2022-12-09T20:05:54.408Z,99404.34
2022-12-09T20:08:23.030Z,99469.94
2022-12-09T20:10:50.492Z,99470.03
2022-12-09T20:13:18.047Z,99465.69
2022-12-09T20:15:46.785Z,99468.25
2022-12-09T20:18:15.033Z,99470.97
2022-12-09T20:20:48.689Z,99471.84
2022-12-09T20:23:16.532Z,99481.53
2022-12-09T20:25:43.976Z,99472.66
2022-12-09T20:28:11.445Z,99470.28
2022-12-09T20:30:38.914Z,99473.72
2022-12-09T20:33:07.708Z,99467.47
2022-12-09T20:35:36.497Z,99472.00
2022-12-09T20:38:03.958Z,99475.56
2022-12-09T20:40:31.457Z,99449.38
2022-12-09T20:42:58.903Z,99478.28
2022-12-09T20:45:26.375Z,99480.84
2022-12-09T20:47:53.819Z,99474.75
2022-12-09T20:50:22.579Z,99438.47
2022-12-09T20:52:50.035Z,99485.38
2022-12-09T20:55:17.827Z,99488.03
2022-12-09T20:57:45.272Z,99493.31
2022-12-09T21:00:13.868Z,99491.50
2022-12-09T21:02:41.339Z,99498.59
2022-12-09T21:05:09.488Z,99503.94
2022-12-09T21:07:38.322Z,99499.59
2022-12-09T21:10:07.010Z,99516.28
2022-12-09T21:12:35.070Z,99518.91
2022-12-09T21:15:02.509Z,99516.28
2022-12-09T21:17:29.981Z,99513.66
2022-12-09T21:19:57.416Z,99514.50
2022-12-09T21:22:25.250Z,99509.31
2022-12-09T21:24:54.137Z,99518.16
2022-12-09T21:27:21.599Z,99511.19
2022-12-09T21:29:49.054Z,99512.03
2022-12-09T21:32:16.495Z,99515.59
2022-12-09T21:34:43.942Z,99515.59
2022-12-09T21:37:11.376Z,99512.22
2022-12-09T21:39:38.815Z,99513.03
2022-12-09T21:42:09.104Z,99518.31
2022-12-09T21:44:36.559Z,99453.53
2022-12-09T21:47:04.024Z,99446.84
2022-12-09T21:49:33.315Z,99525.41
2022-12-09T21:52:00.960Z,99474.91
2022-12-09T21:54:28.416Z,99531.50
2022-12-09T21:56:55.853Z,99418.13
2022-12-09T21:59:24.635Z,99528.88
2022-12-09T22:01:52.065Z,99528.88
2022-12-09T22:04:19.528Z,99537.75
2022-12-09T22:06:47.356Z,99536.06
2022-12-09T22:09:14.850Z,99537.91
2022-12-09T22:11:42.302Z,99537.91
2022-12-09T22:14:10.386Z,99537.91
2022-12-09T22:16:40.257Z,99481.69
2022-12-09T22:19:08.980Z,99539.59
2022-12-09T22:21:36.638Z,99539.59
2022-12-09T22:24:07.173Z,99491.19
2022-12-09T22:26:34.690Z,99530.16
2022-12-09T22:29:03.143Z,99538.78
2022-12-09T22:31:31.604Z,99534.41
2022-12-09T22:34:03.498Z,99520.19
2022-12-09T22:36:31.222Z,99529.13
2022-12-09T22:38:58.692Z,99532.63
2022-12-09T22:41:27.544Z,99528.31
2022-12-09T22:43:55.307Z,99483.94
2022-12-09T22:46:24.303Z,99536.97
2022-12-09T22:48:51.885Z,99533.66
2022-12-09T22:51:22.729Z,99482.53
2022-12-09T22:53:50.602Z,99530.84
2022-12-09T22:56:18.181Z,99536.97
2022-12-09T22:58:45.647Z,99529.03
2022-12-09T23:01:13.831Z,99524.97
2022-12-09T23:03:41.353Z,99510.75
2022-12-09T23:06:09.035Z,99531.69
2022-12-09T23:08:37.990Z,99529.03
2022-12-09T23:11:06.742Z,99536.97
2022-12-09T23:13:40.461Z,99537.81
2022-12-09T23:16:11.687Z,99483.53
2022-12-09T23:18:39.309Z,99489.50
2022-12-09T23:21:09.617Z,99535.19
2022-12-09T23:23:38.476Z,99540.47
2022-12-09T23:26:07.433Z,99538.69
2022-12-09T23:28:36.893Z,99533.41
2022-12-09T23:31:04.421Z,99485.09
2022-12-09T23:33:31.860Z,99531.78
2022-12-09T23:35:59.291Z,99537.91
2022-12-09T23:38:26.750Z,99539.69
2022-12-09T23:40:55.599Z,99535.34
2022-12-09T23:43:23.043Z,99538.00
2022-12-09T23:45:50.480Z,99467.13
2022-12-09T23:48:17.940Z,99535.28
2022-12-09T23:50:45.393Z,99535.28
2022-12-09T23:53:12.817Z,99535.19
2022-12-09T23:55:42.296Z,99523.75
2022-12-09T23:58:11.048Z,99508.44
